createdAt,value
2018-10-02T00:00:06.397Z,1.85
2018-10-02T00:04:59.643Z,1.72
2018-10-02T00:09:52.887Z,2.15
2018-10-02T00:14:46.188Z,1.95
2018-10-02T00:19:39.446Z,1.27
2018-10-02T00:24:32.686Z,1.70
2018-10-02T00:29:25.947Z,1.50
2018-10-02T00:34:19.267Z,1.40
2018-10-02T00:39:12.563Z,1.27
2018-10-02T00:44:05.826Z,1.50
2018-10-02T00:48:59.198Z,1.72
2018-10-02T00:53:52.424Z,1.60
2018-10-02T00:58:45.678Z,2.05
2018-10-02T01:03:38.884Z,1.82
2018-10-02T01:08:32.112Z,2.15
2018-10-02T01:13:25.359Z,2.00
2018-10-02T01:18:18.632Z,1.80
2018-10-02T01:23:11.972Z,2.30
2018-10-02T01:28:06.079Z,2.00
2018-10-02T01:32:59.322Z,1.87
2018-10-02T01:37:52.675Z,2.20
2018-10-02T01:42:45.938Z,2.52
2018-10-02T01:47:39.214Z,3.15
2018-10-02T01:52:32.455Z,3.45
2018-10-02T01:57:25.692Z,2.95
2018-10-02T02:02:19.037Z,3.35
2018-10-02T02:07:12.318Z,3.17
2018-10-02T02:12:05.557Z,3.10
2018-10-02T02:16:58.781Z,3.15
2018-10-02T02:21:52.054Z,3.02
2018-10-02T02:26:45.318Z,2.85
2018-10-02T02:31:38.609Z,2.20
2018-10-02T02:36:31.927Z,2.45
2018-10-02T02:41:25.180Z,2.30
2018-10-02T02:46:18.396Z,3.00
2018-10-02T02:51:28.216Z,2.00
2018-10-02T02:56:21.491Z,1.90
2018-10-02T03:01:15.422Z,2.42
2018-10-02T03:06:09.195Z,2.87
2018-10-02T03:11:02.424Z,2.37
2018-10-02T03:15:55.672Z,1.62
2018-10-02T03:20:48.920Z,2.42
2018-10-02T03:25:42.677Z,2.00
2018-10-02T03:30:35.878Z,1.85
2018-10-02T03:35:29.124Z,2.20
2018-10-02T03:40:22.373Z,2.25
2018-10-02T03:45:15.601Z,1.80
2018-10-02T03:50:08.822Z,2.17
2018-10-02T03:55:02.057Z,2.15
2018-10-02T03:59:55.281Z,2.08
2018-10-02T04:04:48.531Z,2.10
2018-10-02T04:09:41.818Z,2.00
2018-10-02T04:14:35.202Z,1.70
2018-10-02T04:19:29.146Z,1.67
2018-10-02T04:24:22.528Z,1.92
2018-10-02T04:29:16.324Z,1.52
2018-10-02T04:34:09.639Z,2.05
2018-10-02T04:39:04.609Z,1.80
2018-10-02T04:43:57.850Z,1.82
2018-10-02T04:48:51.180Z,2.17
2018-10-02T04:53:44.421Z,2.72
2018-10-02T04:58:37.732Z,2.62
2018-10-02T05:03:31.056Z,2.60
2018-10-02T05:08:24.485Z,2.42
2018-10-02T05:13:18.092Z,2.10
2018-10-02T05:18:11.351Z,2.67
2018-10-02T05:23:04.648Z,2.33
2018-10-02T05:27:57.855Z,1.98
2018-10-02T05:32:51.135Z,2.50
2018-10-02T05:37:45.164Z,2.42
2018-10-02T05:42:38.420Z,1.92
2018-10-02T05:47:31.667Z,2.02
2018-10-02T05:52:24.905Z,1.65
2018-10-02T05:57:18.239Z,1.92
2018-10-02T06:02:12.203Z,2.10
2018-10-02T06:07:05.905Z,2.20
2018-10-02T06:11:59.200Z,1.98
2018-10-02T06:16:52.410Z,2.10
2018-10-02T06:21:45.727Z,2.08
2018-10-02T06:26:38.976Z,1.80
2018-10-02T06:31:32.254Z,2.35
2018-10-02T06:36:25.507Z,2.00
2018-10-02T06:41:18.829Z,1.98
2018-10-02T06:46:12.135Z,2.12
2018-10-02T06:51:05.838Z,2.12
2018-10-02T06:55:59.015Z,2.08
2018-10-02T07:00:52.261Z,2.10
2018-10-02T07:05:45.539Z,1.70
2018-10-02T07:10:38.952Z,2.27
2018-10-02T07:15:32.266Z,2.30
2018-10-02T07:20:25.607Z,2.37
2018-10-02T07:25:18.864Z,2.12
2018-10-02T07:30:12.120Z,2.33
2018-10-02T07:35:05.428Z,1.98
2018-10-02T07:39:58.726Z,2.17
2018-10-02T07:44:52.028Z,2.25
2018-10-02T07:49:45.551Z,2.27
2018-10-02T07:54:38.837Z,1.92
2018-10-02T07:59:32.100Z,1.42
2018-10-02T08:04:25.402Z,2.27
2018-10-02T08:09:19.085Z,1.52
2018-10-02T08:14:12.602Z,1.82
2018-10-02T08:19:06.023Z,1.77
2018-10-02T08:23:59.322Z,1.80
2018-10-02T08:28:53.024Z,1.77
2018-10-02T08:33:46.366Z,1.92
2018-10-02T08:38:39.672Z,2.35
2018-10-02T08:43:33.451Z,1.75
2018-10-02T08:48:26.951Z,2.05
2018-10-02T08:53:20.248Z,2.00
2018-10-02T08:58:14.307Z,1.40
2018-10-02T09:03:07.894Z,2.00
2018-10-02T09:08:01.282Z,2.15
2018-10-02T09:12:54.691Z,2.10
2018-10-02T09:17:48.074Z,2.62
2018-10-02T09:22:41.552Z,2.30
2018-10-02T09:27:34.926Z,2.10
2018-10-02T09:33:35.528Z,2.80
2018-10-02T09:38:34.399Z,2.58
2018-10-02T09:43:32.242Z,2.20
2018-10-02T09:48:25.495Z,1.90
2018-10-02T09:53:18.809Z,1.87
2018-10-02T09:58:12.260Z,1.83
2018-10-02T10:03:05.712Z,1.60
2018-10-02T10:07:58.918Z,1.67
2018-10-02T10:12:52.462Z,1.80
2018-10-02T10:17:45.943Z,1.70
2018-10-02T10:22:39.309Z,1.85
2018-10-02T10:27:32.731Z,1.75
2018-10-02T10:32:27.570Z,1.72
2018-10-02T10:37:20.865Z,2.12
2018-10-02T10:42:14.136Z,2.15
2018-10-02T10:47:09.050Z,1.50
2018-10-02T10:52:02.530Z,2.10
2018-10-02T10:56:55.867Z,1.62
2018-10-02T11:01:49.164Z,1.98
2018-10-02T11:06:42.765Z,2.22
2018-10-02T11:11:37.065Z,2.47
2018-10-02T11:16:30.355Z,2.22
2018-10-02T11:21:23.603Z,2.25
2018-10-02T11:26:16.872Z,1.90
2018-10-02T11:31:10.261Z,2.33
2018-10-02T11:36:03.684Z,2.20
2018-10-02T11:40:56.980Z,1.98
2018-10-02T11:45:50.275Z,2.02
2018-10-02T11:50:43.507Z,1.92
2018-10-02T11:55:36.946Z,1.92
2018-10-02T12:00:30.314Z,1.80
2018-10-02T12:05:23.552Z,1.85
2018-10-02T12:10:16.794Z,1.95
2018-10-02T12:15:10.254Z,1.80
2018-10-02T12:20:04.065Z,1.00
2018-10-02T12:24:57.488Z,1.07
2018-10-02T12:29:50.953Z,1.25
2018-10-02T12:34:44.174Z,1.32
2018-10-02T12:39:37.623Z,1.37
2018-10-02T12:44:31.644Z,1.50
2018-10-02T12:49:24.873Z,2.00
2018-10-02T12:54:18.626Z,1.35
2018-10-02T12:59:12.232Z,1.40
2018-10-02T13:04:05.821Z,1.50
2018-10-02T13:08:59.070Z,1.70
2018-10-02T13:13:52.286Z,0.98
2018-10-02T13:18:45.561Z,0.90
2018-10-02T13:23:38.887Z,1.00
2018-10-02T13:28:32.279Z,1.30
2018-10-02T13:33:25.579Z,1.15
2018-10-02T13:38:18.924Z,1.10
2018-10-02T13:43:12.368Z,1.70
2018-10-02T13:48:06.560Z,1.10
2018-10-02T13:52:59.799Z,1.37
2018-10-02T13:57:53.034Z,2.70
2018-10-02T14:02:46.269Z,1.30
2018-10-02T14:07:39.504Z,0.93
2018-10-02T14:12:33.187Z,1.60
2018-10-02T14:17:26.676Z,1.95
2018-10-02T14:22:20.058Z,1.10
2018-10-02T14:27:13.536Z,1.90
2018-10-02T14:32:07.085Z,2.00
2018-10-02T14:37:00.470Z,1.70
2018-10-02T14:41:53.735Z,2.40
2018-10-02T14:46:47.089Z,2.58
2018-10-02T14:51:41.082Z,2.83
2018-10-02T14:56:34.335Z,2.62
2018-10-02T15:01:27.675Z,3.27
2018-10-02T15:06:21.021Z,3.50
2018-10-02T15:11:14.279Z,2.92
2018-10-02T15:16:07.781Z,3.33
2018-10-02T15:21:01.065Z,4.42
2018-10-02T15:25:54.322Z,5.00
2018-10-02T15:30:47.635Z,5.60
2018-10-02T15:35:41.616Z,6.00
2018-10-02T15:40:34.871Z,5.72
2018-10-02T15:45:28.247Z,4.92
2018-10-02T15:50:21.835Z,4.97
2018-10-02T15:55:15.087Z,4.22
2018-10-02T16:00:08.875Z,4.78
2018-10-02T16:05:02.441Z,4.28
2018-10-02T16:09:55.666Z,4.65
2018-10-02T16:14:48.937Z,6.12
2018-10-02T16:19:42.174Z,6.25
2018-10-02T16:24:35.481Z,6.62
2018-10-02T16:29:28.896Z,5.50
2018-10-02T16:34:22.242Z,5.97
2018-10-02T16:39:15.463Z,7.12
2018-10-02T16:44:08.703Z,8.45
2018-10-02T16:49:02.200Z,9.38
2018-10-02T16:53:55.463Z,8.83
2018-10-02T16:58:48.741Z,7.30
2018-10-02T17:03:42.017Z,6.35
2018-10-02T17:08:35.228Z,6.53
2018-10-02T17:13:28.451Z,5.45
2018-10-02T17:18:21.703Z,7.55
2018-10-02T17:23:15.987Z,7.80
2018-10-02T17:28:09.227Z,8.00
2018-10-02T17:33:02.527Z,8.25
2018-10-02T17:37:55.767Z,8.18
2018-10-02T17:42:49.040Z,8.45
2018-10-02T17:47:42.313Z,8.83
2018-10-02T17:52:35.585Z,9.70
2018-10-02T17:57:28.807Z,8.20
2018-10-02T18:02:22.115Z,9.08
2018-10-02T18:07:15.351Z,8.33
2018-10-02T18:12:08.679Z,8.33
2018-10-02T18:17:02.325Z,8.80
2018-10-02T18:21:55.580Z,8.35
2018-10-02T18:26:48.835Z,9.55
2018-10-02T18:31:48.689Z,8.53
2018-10-02T18:36:42.233Z,8.50
2018-10-02T18:41:35.536Z,8.68
2018-10-02T18:46:28.833Z,8.45
2018-10-02T18:51:22.094Z,8.70
2018-10-02T18:56:15.516Z,8.38
2018-10-02T19:01:09.011Z,8.43
2018-10-02T19:06:02.401Z,8.03
2018-10-02T19:11:00.091Z,8.70
2018-10-02T19:15:58.988Z,8.15
2018-10-02T19:20:52.846Z,8.38
2018-10-02T19:25:51.689Z,9.03
2018-10-02T19:30:50.733Z,8.88
2018-10-02T19:35:43.973Z,8.50
2018-10-02T19:40:37.253Z,8.50
2018-10-02T19:45:36.219Z,9.75
2018-10-02T19:50:29.502Z,8.35
2018-10-02T19:55:22.749Z,8.65
2018-10-02T20:00:16.016Z,9.08
2018-10-02T20:05:09.303Z,7.92
2018-10-02T20:10:02.620Z,9.13
2018-10-02T20:14:55.864Z,8.73
2018-10-02T20:19:49.135Z,9.30
2018-10-02T20:24:42.383Z,8.63
2018-10-02T20:29:35.622Z,9.98
2018-10-02T20:34:28.836Z,10.75
2018-10-02T20:39:22.109Z,10.80
2018-10-02T20:44:15.341Z,10.98
2018-10-02T20:49:08.690Z,10.90
2018-10-02T20:54:01.884Z,10.30
2018-10-02T20:58:55.200Z,10.98
2018-10-02T21:03:48.484Z,12.33
2018-10-02T21:08:41.769Z,12.35
2018-10-02T21:13:35.036Z,11.68
2018-10-02T21:18:30.661Z,12.65
2018-10-02T21:23:24.425Z,12.10
2018-10-02T21:28:18.589Z,12.15
2018-10-02T21:33:11.864Z,13.80
2018-10-02T21:38:05.250Z,12.73
2018-10-02T21:42:58.501Z,11.83
2018-10-02T21:47:51.750Z,12.73
2018-10-02T21:52:45.054Z,11.80
2018-10-02T21:57:38.344Z,12.53
2018-10-02T22:02:31.672Z,12.45
2018-10-02T22:07:25.009Z,11.57
2018-10-02T22:12:18.277Z,11.83
2018-10-02T22:17:11.531Z,12.93
2018-10-02T22:22:04.852Z,12.65
2018-10-02T22:26:58.099Z,12.68
2018-10-02T22:31:58.065Z,13.72
2018-10-02T22:36:51.308Z,13.20
2018-10-02T22:41:45.402Z,11.97
2018-10-02T22:46:38.643Z,13.55
2018-10-02T22:51:31.961Z,12.88
2018-10-02T22:56:25.329Z,13.03
2018-10-02T23:01:18.614Z,12.93
2018-10-02T23:06:11.870Z,11.60
2018-10-02T23:11:05.468Z,10.80
2018-10-02T23:15:58.717Z,10.80
2018-10-02T23:20:51.977Z,9.83
2018-10-02T23:25:45.267Z,8.85
2018-10-02T23:30:38.523Z,8.43
2018-10-02T23:35:31.798Z,8.05
2018-10-02T23:40:25.140Z,8.03
2018-10-02T23:45:18.489Z,10.05
2018-10-02T23:50:11.781Z,9.95
2018-10-02T23:55:05.124Z,11.20
2018-10-02T23:59:58.407Z,10.70
